Padre Island — WDB4436 — position and weather

sailwx.info

Track history (hours):
 
Tides and Currents Weather Stations Pressure Air Temp Water Temp Dewpoint Dewpoint Depression Visibility Wind Speed Wind Dir Waves Ship Positions

Padre Island

Owner: Great Lakes Dredge & Dock Company, Oak Brook, IL. More information available from US FCC via Universal Licensing System and Coast Guard Vessel Documentation Center.

Last reported at 2017-Mar-27 12:33 UTC. Time now 2017-Mar-27 12:33 UTC.
Position N 36°58' W 076°04'.

Length 86 m; draft 19.6 m.

Type: Dredging. MMSI: 367525000.

Date/timePositionNaut miles runAvg speedWind from/ knotsBaromVisibWave heightAir tempDewpointWater temp
2017-Mar-27 12:33N 36°58' W 076°04'5 5.1
2017-Mar-27 11:32N 36°57' W 076°10'6 2.9
2017-Mar-27 09:27N 36°57' W 076°03'0 0.0
2017-Mar-27 05:32N 36°57' W 076°03'0 0.0
2017-Mar-27 01:18N 36°57' W 076°03'2 1.2
2017-Mar-26 23:24N 36°58' W 076°05'4 1.6
2017-Mar-26 21:04N 36°59' W 076°10'5 8.8
2017-Mar-26 20:33N 36°57' W 076°04'1 1.1
2017-Mar-26 19:33N 36°57' W 076°03'8 6.1
2017-Mar-26 18:16N 36°57' W 076°13'0 0.2
2017-Mar-26 17:22N 36°57' W 076°12'5 5.3
2017-Mar-26 16:25N 36°58' W 076°06'3 2.9
2017-Mar-26 15:33N 36°57' W 076°03'1 1.2
2017-Mar-26 14:33N 36°58' W 076°05'2 0.5
2017-Mar-26 11:25N 36°57' W 076°03'0 0.0
2017-Mar-26 06:18N 36°57' W 076°03'1 0.1
2017-Mar-26 01:27N 36°57' W 076°03'8 3.5
2017-Mar-25 23:19N 36°57' W 076°13'5 2.5
2017-Mar-25 21:13N 36°58' W 076°06'3 4.8
2017-Mar-25 20:33N 36°57' W 076°03'3 2.6
2017-Mar-25 19:28N 36°58' W 076°06'3 0.6
2017-Mar-25 14:33N 36°57' W 076°03'1 0.9
2017-Mar-25 13:31N 36°58' W 076°04'1 0.2
2017-Mar-25 08:21N 36°57' W 076°03'0 0.1
2017-Mar-25 04:28N 36°57' W 076°03'0 0.5
2017-Mar-25 03:27N 36°57' W 076°02'8 1.9
2017-Mar-24 23:07N 36°57' W 076°13'1 2.5
2017-Mar-24 22:33N 36°56' W 076°11'6 6.1
2017-Mar-24 21:33N 36°57' W 076°03'1 0.6
2017-Mar-24 20:22N 36°57' W 076°02'2 0.7
2017-Mar-24 17:16N 36°58' W 076°05'2 2.3
2017-Mar-24 16:33N 36°57' W 076°03'2 1.9
2017-Mar-24 15:28N 36°58' W 076°05'5 2.6
2017-Mar-24 13:28N 36°57' W 076°12'6 6.9
2017-Mar-24 12:33N 36°57' W 076°04'0 0.4
2017-Mar-24 11:33N 36°57' W 076°03'4 2.8
2017-Mar-24 10:15N 36°59' W 076°08'4 0.5
2017-Mar-24 02:27N 36°57' W 076°03'1 1.1
2017-Mar-24 01:16N 36°58' W 076°04'4 0.7
2017-Mar-23 19:31N 36°59' W 076°09'3 2.9
2017-Mar-23 18:32N 36°58' W 076°06'6 5.3
2017-Mar-23 17:27N 36°57' W 076°13'1 1.3
2017-Mar-23 16:19N 36°56' W 076°11'4 4.2
2017-Mar-23 15:16N 36°58' W 076°06'2 3.1
2017-Mar-23 14:33N 36°57' W 076°03'0 0.5
2017-Mar-23 13:33N 36°57' W 076°03'8 6.8
2017-Mar-23 12:23N 36°57' W 076°13'8 3.5
2017-Mar-23 10:03N 36°57' W 076°02'0 0.9
2017-Mar-23 09:33N 36°57' W 076°03'1 0.1
2017-Mar-23 04:31N 36°57' W 076°02'8 6.6
2017-Mar-23 03:16N 36°57' W 076°13'8 2.7
2017-Mar-23 00:15N 36°57' W 076°03'0 0.1
2017-Mar-22 23:20N 36°57' W 076°02'7 7.3
2017-Mar-22 22:24N 36°57' W 076°11'1 1.7
2017-Mar-22 21:33N 36°57' W 076°13'0 0.3
2017-Mar-22 20:12N 36°57' W 076°13'0 0.4
2017-Mar-22 19:29N 36°57' W 076°13'1 1.6
2017-Mar-22 18:33N 36°56' W 076°11'0 0.1
2017-Mar-22 17:26N 36°56' W 076°11'0 0.1
2017-Mar-22 16:32N 36°56' W 076°11'1 0.3
2017-Mar-22 14:32N 36°57' W 076°11'1 0.8
2017-Mar-22 13:33N 36°57' W 076°13'6 5.3
2017-Mar-22 12:31N 36°58' W 076°06'2 2.0
2017-Mar-22 11:28N 36°57' W 076°03'1 0.9
2017-Mar-22 10:29N 36°57' W 076°02'0 0.1
2017-Mar-22 06:33N 36°57' W 076°03'5 4.4
2017-Mar-22 05:24N 36°58' W 076°09'5 1.8
2017-Mar-22 02:21N 36°57' W 076°02'0 0.2
2017-Mar-22 01:07N 36°57' W 076°02'4 1.5
2017-Mar-21 22:17N 36°58' W 076°07'4 5.0
2017-Mar-21 21:33N 36°57' W 076°03'3 2.9
2017-Mar-21 20:28N 36°58' W 076°06'3 0.4
2017-Mar-21 13:18N 36°59' W 076°10'6 7.3
2017-Mar-21 12:33N 36°57' W 076°03'2 1.8
2017-Mar-21 11:30N 36°58' W 076°05'2 0.8
2017-Mar-21 08:28N 36°57' W 076°03'1 0.4
2017-Mar-21 07:03N 36°57' W 076°03'2 0.8
2017-Mar-21 04:21N 36°58' W 076°06'2 2.5
2017-Mar-21 03:33N 36°57' W 076°03'0 0.2
2017-Mar-21 02:24N 36°57' W 076°03'2 0.6
2017-Mar-20 23:10N 36°58' W 076°05'2 3.4
2017-Mar-20 22:26N 36°57' W 076°02'0 0.6
2017-Mar-20 21:33N 36°57' W 076°03'7 5.0
2017-Mar-20 20:07N 36°56' W 076°12'0 0.0
2017-Mar-20 19:20N 36°56' W 076°12'6 6.7
2017-Mar-20 18:29N 36°58' W 076°05'1 1.4
2017-Mar-20 17:31N 36°57' W 076°03'7 4.8
2017-Mar-20 16:08N 36°57' W 076°12'1 1.3
2017-Mar-20 15:33N 36°56' W 076°12'2 2.4
2017-Mar-20 14:32N 36°58' W 076°10'4 4.4
2017-Mar-20 13:31N 36°58' W 076°04'0 0.3
2017-Mar-20 12:32N 36°58' W 076°05'1 1.3
2017-Mar-20 11:33N 36°58' W 076°06'2 0.6
2017-Mar-20 08:33N 36°58' W 076°04'4 0.2
2017-Mar-19 14:07N 36°59' W 076°09'4 5.6
2017-Mar-19 13:28N 36°58' W 076°05'0 0.5
2017-Mar-19 12:34N 36°58' W 076°04'6 5.4
2017-Mar-19 11:26N 36°56' W 076°12'6 0.9
2017-Mar-19 04:13N 36°57' W 076°04'1 0.7
2017-Mar-19 03:10N 36°58' W 076°05'1 1.0
2017-Mar-19 02:33N 36°58' W 076°04'2 0.5
2017-Mar-18 23:13N 36°58' W 076°06'2 2.5
2017-Mar-18 22:33N 36°58' W 076°04'0 0.2
2017-Mar-18 21:33N 36°58' W 076°04'0 0.1
2017-Mar-18 18:30N 36°58' W 076°04'0 0.2
2017-Mar-18 17:33N 36°58' W 076°04'0 0.4
2017-Mar-18 16:33N 36°58' W 076°05'5 2.3
2017-Mar-18 14:19N 36°56' W 076°11'5 6.3
2017-Mar-18 13:29N 36°58' W 076°04'0 0.0
2017-Mar-18 12:33N 36°58' W 076°04'0 0.4
2017-Mar-18 11:34N 36°58' W 076°04'0 0.0
2017-Mar-18 08:11N 36°57' W 076°04'1 0.5
2017-Mar-18 06:33N 36°58' W 076°05'1 0.2
2017-Mar-18 02:04N 36°57' W 076°04'0 0.1
2017-Mar-18 01:15N 36°58' W 076°04'2 0.5
2017-Mar-17 21:31N 36°58' W 076°06'1 1.3
2017-Mar-17 20:32N 36°58' W 076°04'1 0.9
2017-Mar-17 19:31N 36°58' W 076°05'12 8.3
2017-Mar-17 18:05N 36°57' W 076°20'4 8.2
2017-Mar-17 17:34N 36°52' W 076°20'4 3.9
2017-Mar-17 16:33N 36°50' W 076°16'0 0.0
2017-Mar-17 15:33N 36°50' W 076°16'0 0.0
2017-Mar-17 14:30N 36°50' W 076°16'0 0.0
2017-Mar-17 13:31N 36°50' W 076°16'0 0.0
2017-Mar-17 12:31N 36°50' W 076°16'  
Track history (hours):
 
Tides and Currents Weather Stations Pressure Air Temp Water Temp Dewpoint Dewpoint Depression Visibility Wind Speed Wind Dir Waves Ship Positions

Padre Island

Owner: Great Lakes Dredge & Dock Company, Oak Brook, IL. More information available from US FCC via Universal Licensing System and Coast Guard Vessel Documentation Center.

Last reported at 2017-Mar-27 12:33 UTC. Time now 2017-Mar-27 12:33 UTC.
Position N 36°58' W 076°04'.

Length 86 m; draft 19.6 m.

Type: Dredging. MMSI: 367525000.

Date/timePositionNaut miles runAvg speedWind from/ knotsBaromVisibWave heightAir tempDewpointWater temp
2017-Mar-27 12:33N 36°58' W 076°04'5 5.1
2017-Mar-27 11:32N 36°57' W 076°10'6 2.9
2017-Mar-27 09:27N 36°57' W 076°03'0 0.0
2017-Mar-27 05:32N 36°57' W 076°03'0 0.0
2017-Mar-27 01:18N 36°57' W 076°03'2 1.2
2017-Mar-26 23:24N 36°58' W 076°05'4 1.6
2017-Mar-26 21:04N 36°59' W 076°10'5 8.8
2017-Mar-26 20:33N 36°57' W 076°04'1 1.1
2017-Mar-26 19:33N 36°57' W 076°03'8 6.1
2017-Mar-26 18:16N 36°57' W 076°13'0 0.2
2017-Mar-26 17:22N 36°57' W 076°12'5 5.3
2017-Mar-26 16:25N 36°58' W 076°06'3 2.9
2017-Mar-26 15:33N 36°57' W 076°03'1 1.2
2017-Mar-26 14:33N 36°58' W 076°05'2 0.5
2017-Mar-26 11:25N 36°57' W 076°03'0 0.0
2017-Mar-26 06:18N 36°57' W 076°03'1 0.1
2017-Mar-26 01:27N 36°57' W 076°03'8 3.5
2017-Mar-25 23:19N 36°57' W 076°13'5 2.5
2017-Mar-25 21:13N 36°58' W 076°06'3 4.8
2017-Mar-25 20:33N 36°57' W 076°03'3 2.6
2017-Mar-25 19:28N 36°58' W 076°06'3 0.6
2017-Mar-25 14:33N 36°57' W 076°03'1 0.9
2017-Mar-25 13:31N 36°58' W 076°04'1 0.2
2017-Mar-25 08:21N 36°57' W 076°03'0 0.1
2017-Mar-25 04:28N 36°57' W 076°03'0 0.5
2017-Mar-25 03:27N 36°57' W 076°02'8 1.9
2017-Mar-24 23:07N 36°57' W 076°13'1 2.5
2017-Mar-24 22:33N 36°56' W 076°11'6 6.1
2017-Mar-24 21:33N 36°57' W 076°03'1 0.6
2017-Mar-24 20:22N 36°57' W 076°02'2 0.7
2017-Mar-24 17:16N 36°58' W 076°05'2 2.3
2017-Mar-24 16:33N 36°57' W 076°03'2 1.9
2017-Mar-24 15:28N 36°58' W 076°05'5 2.6
2017-Mar-24 13:28N 36°57' W 076°12'6 6.9
2017-Mar-24 12:33N 36°57' W 076°04'0 0.4
2017-Mar-24 11:33N 36°57' W 076°03'4 2.8
2017-Mar-24 10:15N 36°59' W 076°08'4 0.5
2017-Mar-24 02:27N 36°57' W 076°03'1 1.1
2017-Mar-24 01:16N 36°58' W 076°04'4 0.7
2017-Mar-23 19:31N 36°59' W 076°09'3 2.9
2017-Mar-23 18:32N 36°58' W 076°06'6 5.3
2017-Mar-23 17:27N 36°57' W 076°13'1 1.3
2017-Mar-23 16:19N 36°56' W 076°11'4 4.2
2017-Mar-23 15:16N 36°58' W 076°06'2 3.1
2017-Mar-23 14:33N 36°57' W 076°03'0 0.5
2017-Mar-23 13:33N 36°57' W 076°03'8 6.8
2017-Mar-23 12:23N 36°57' W 076°13'8 3.5
2017-Mar-23 10:03N 36°57' W 076°02'0 0.9
2017-Mar-23 09:33N 36°57' W 076°03'1 0.1
2017-Mar-23 04:31N 36°57' W 076°02'8 6.6
2017-Mar-23 03:16N 36°57' W 076°13'8 2.7
2017-Mar-23 00:15N 36°57' W 076°03'0 0.1
2017-Mar-22 23:20N 36°57' W 076°02'7 7.3
2017-Mar-22 22:24N 36°57' W 076°11'1 1.7
2017-Mar-22 21:33N 36°57' W 076°13'0 0.3
2017-Mar-22 20:12N 36°57' W 076°13'0 0.4
2017-Mar-22 19:29N 36°57' W 076°13'1 1.6
2017-Mar-22 18:33N 36°56' W 076°11'0 0.1
2017-Mar-22 17:26N 36°56' W 076°11'0 0.1
2017-Mar-22 16:32N 36°56' W 076°11'1 0.3
2017-Mar-22 14:32N 36°57' W 076°11'1 0.8
2017-Mar-22 13:33N 36°57' W 076°13'6 5.3
2017-Mar-22 12:31N 36°58' W 076°06'2 2.0
2017-Mar-22 11:28N 36°57' W 076°03'1 0.9
2017-Mar-22 10:29N 36°57' W 076°02'0 0.1
2017-Mar-22 06:33N 36°57' W 076°03'5 4.4
2017-Mar-22 05:24N 36°58' W 076°09'5 1.8
2017-Mar-22 02:21N 36°57' W 076°02'0 0.2
2017-Mar-22 01:07N 36°57' W 076°02'4 1.5
2017-Mar-21 22:17N 36°58' W 076°07'4 5.0
2017-Mar-21 21:33N 36°57' W 076°03'3 2.9
2017-Mar-21 20:28N 36°58' W 076°06'3 0.4
2017-Mar-21 13:18N 36°59' W 076°10'6 7.3
2017-Mar-21 12:33N 36°57' W 076°03'2 1.8
2017-Mar-21 11:30N 36°58' W 076°05'2 0.8
2017-Mar-21 08:28N 36°57' W 076°03'1 0.4
2017-Mar-21 07:03N 36°57' W 076°03'2 0.8
2017-Mar-21 04:21N 36°58' W 076°06'2 2.5
2017-Mar-21 03:33N 36°57' W 076°03'0 0.2
2017-Mar-21 02:24N 36°57' W 076°03'2 0.6
2017-Mar-20 23:10N 36°58' W 076°05'2 3.4
2017-Mar-20 22:26N 36°57' W 076°02'0 0.6
2017-Mar-20 21:33N 36°57' W 076°03'7 5.0
2017-Mar-20 20:07N 36°56' W 076°12'0 0.0
2017-Mar-20 19:20N 36°56' W 076°12'6 6.7
2017-Mar-20 18:29N 36°58' W 076°05'1 1.4
2017-Mar-20 17:31N 36°57' W 076°03'7 4.8
2017-Mar-20 16:08N 36°57' W 076°12'1 1.3
2017-Mar-20 15:33N 36°56' W 076°12'2 2.4
2017-Mar-20 14:32N 36°58' W 076°10'4 4.4
2017-Mar-20 13:31N 36°58' W 076°04'0 0.3
2017-Mar-20 12:32N 36°58' W 076°05'1 1.3
2017-Mar-20 11:33N 36°58' W 076°06'2 0.6
2017-Mar-20 08:33N 36°58' W 076°04'4 0.2
2017-Mar-19 14:07N 36°59' W 076°09'4 5.6
2017-Mar-19 13:28N 36°58' W 076°05'0 0.5
2017-Mar-19 12:34N 36°58' W 076°04'6 5.4
2017-Mar-19 11:26N 36°56' W 076°12'6 0.9
2017-Mar-19 04:13N 36°57' W 076°04'1 0.7
2017-Mar-19 03:10N 36°58' W 076°05'1 1.0
2017-Mar-19 02:33N 36°58' W 076°04'2 0.5
2017-Mar-18 23:13N 36°58' W 076°06'2 2.5
2017-Mar-18 22:33N 36°58' W 076°04'0 0.2
2017-Mar-18 21:33N 36°58' W 076°04'0 0.1
2017-Mar-18 18:30N 36°58' W 076°04'0 0.2
2017-Mar-18 17:33N 36°58' W 076°04'0 0.4
2017-Mar-18 16:33N 36°58' W 076°05'5 2.3
2017-Mar-18 14:19N 36°56' W 076°11'5 6.3
2017-Mar-18 13:29N 36°58' W 076°04'0 0.0
2017-Mar-18 12:33N 36°58' W 076°04'0 0.4
2017-Mar-18 11:34N 36°58' W 076°04'0 0.0
2017-Mar-18 08:11N 36°57' W 076°04'1 0.5
2017-Mar-18 06:33N 36°58' W 076°05'1 0.2
2017-Mar-18 02:04N 36°57' W 076°04'0 0.1
2017-Mar-18 01:15N 36°58' W 076°04'2 0.5
2017-Mar-17 21:31N 36°58' W 076°06'1 1.3
2017-Mar-17 20:32N 36°58' W 076°04'1 0.9
2017-Mar-17 19:31N 36°58' W 076°05'12 8.3
2017-Mar-17 18:05N 36°57' W 076°20'4 8.2
2017-Mar-17 17:34N 36°52' W 076°20'4 3.9
2017-Mar-17 16:33N 36°50' W 076°16'0 0.0
2017-Mar-17 15:33N 36°50' W 076°16'0 0.0
2017-Mar-17 14:30N 36°50' W 076°16'0 0.0
2017-Mar-17 13:31N 36°50' W 076°16'0 0.0
2017-Mar-17 12:31N 36°50' W 076°16'  

Dump ship's entire track history